Euro Snow — VQGH9 — position and weather

sailwx.info

Track history (hours):
 
Tides and Currents Weather Stations Pressure Air Temp Water Temp Dewpoint Dewpoint Depression Visibility Wind Speed Wind Dir Waves Ship Positions

Euro Snow

Last reported at 2017-Mar-18 13:27 UTC. Time now 2017-Mar-23 12:31 UTC.
Position N 59°12' W 004°27'.

Length 133 m; draft 6.6 m.

Type: Ship (hazmat cat A). MMSI: 235613000.

Date/timePositionNaut miles runAvg speedWind from/ knotsBaromVisibWave heightAir tempDewpointWater temp
2017-Mar-18 13:27N 59°12' W 004°27'1415.7
2017-Mar-18 12:33N 59°04' W 004°04'1615.6
2017-Mar-18 11:34N 58°54' W 003°41'1514.8
2017-Mar-18 10:33N 58°45' W 003°18'1414.0
2017-Mar-18 09:33N 58°38' W 002°55'5217.2
2017-Mar-18 06:33N 57°57' W 001°56'1616.3
2017-Mar-18 05:33N 57°43' W 001°39'37115.9
2017-Mar-17 06:13N 52°15' E 003°24'1116.5
2017-Mar-17 05:33N 52°07' E 003°37'1313.3
2017-Mar-17 04:33N 52°02' E 003°56'1313.3
2017-Mar-17 03:33N 51°55' E 004°15'7 6.8
2017-Mar-17 02:32N 51°53' E 004°25'0 0.0
2017-Mar-17 01:32N 51°53' E 004°25'0 0.0
2017-Mar-17 00:31N 51°53' E 004°25'0 0.0
2017-Mar-16 23:33N 51°53' E 004°25'0 0.0
2017-Mar-16 22:34N 51°53' E 004°25'0 0.0
2017-Mar-16 21:33N 51°53' E 004°25'0 0.0
2017-Mar-16 20:33N 51°53' E 004°25'0 0.0
2017-Mar-16 19:34N 51°53' E 004°25'0 0.0
2017-Mar-16 18:33N 51°53' E 004°25'0 0.0
2017-Mar-16 17:29N 51°53' E 004°25'0 0.0
2017-Mar-16 16:32N 51°53' E 004°25'0 0.0
2017-Mar-16 15:32N 51°53' E 004°25'0 0.0
2017-Mar-16 14:32N 51°53' E 004°25'0 0.0
2017-Mar-16 13:32N 51°53' E 004°25'0 0.0
2017-Mar-16 12:32N 51°53' E 004°25'0 0.0
2017-Mar-16 11:34N 51°53' E 004°25'0 0.0
2017-Mar-16 10:31N 51°53' E 004°25'0 0.0
2017-Mar-16 09:34N 51°53' E 004°25'0 0.0
2017-Mar-16 08:34N 51°53' E 004°25'0 0.0
2017-Mar-16 07:33N 51°53' E 004°25'0 0.0
2017-Mar-16 06:34N 51°53' E 004°25'5 5.0
2017-Mar-16 05:34N 51°54' E 004°17'1212.3
2017-Mar-16 04:33N 51°60' E 003°60'8 8.4
2017-Mar-16 03:33N 51°59' E 003°46'2 1.7
2017-Mar-16 02:32N 51°57' E 003°48'0 0.1
2017-Mar-16 01:29N 51°57' E 003°48'0 0.0
2017-Mar-16 00:32N 51°57' E 003°48'0 0.0
2017-Mar-15 23:29N 51°57' E 003°48'0 0.0
2017-Mar-15 22:20N 51°57' E 003°48'0 0.0
2017-Mar-15 21:32N 51°57' E 003°48'0 0.1
2017-Mar-15 20:29N 51°57' E 003°48'0 0.1
2017-Mar-15 19:32N 51°57' E 003°48'0 0.0
2017-Mar-15 18:32N 51°57' E 003°48'0 0.0
2017-Mar-15 17:29N 51°57' E 003°48'0 0.0
2017-Mar-15 16:32N 51°57' E 003°48'0 0.0
2017-Mar-15 15:32N 51°57' E 003°48'0 0.1
2017-Mar-15 14:32N 51°57' E 003°48'0 0.1
2017-Mar-15 13:32N 51°57' E 003°48'0 0.0
2017-Mar-15 12:26N 51°57' E 003°48'0 0.0
2017-Mar-15 11:33N 51°57' E 003°48'0 0.0
2017-Mar-15 10:33N 51°57' E 003°48'0 0.0
2017-Mar-15 09:33N 51°57' E 003°48'0 0.0
2017-Mar-15 08:33N 51°57' E 003°48'0 0.1
2017-Mar-15 07:33N 51°57' E 003°48'0 0.0
2017-Mar-15 06:33N 51°57' E 003°48'0 0.0
2017-Mar-15 05:33N 51°57' E 003°48'0 0.0
2017-Mar-15 04:33N 51°57' E 003°48'0 0.0
2017-Mar-15 03:33N 51°57' E 003°48'0 0.0
2017-Mar-15 02:33N 51°57' E 003°48'0 0.0
2017-Mar-15 01:33N 51°57' E 003°48'0 0.1
2017-Mar-15 00:27N 51°57' E 003°48'0 0.0
2017-Mar-14 23:33N 51°57' E 003°48'0 0.0
2017-Mar-14 22:32N 51°57' E 003°48'0 0.0
2017-Mar-14 21:30N 51°57' E 003°48'0 0.1
2017-Mar-14 20:06N 51°57' E 003°48'0 0.2
2017-Mar-14 19:29N 51°57' E 003°48'0 0.0
2017-Mar-14 18:33N 51°57' E 003°48'0 0.0
2017-Mar-14 17:24N 51°57' E 003°48'0 0.0
2017-Mar-14 16:30N 51°57' E 003°48'0 0.0
2017-Mar-14 15:30N 51°57' E 003°48'0 0.0
2017-Mar-14 14:33N 51°57' E 003°48'0 0.0
2017-Mar-14 13:32N 51°57' E 003°48'0 0.1
2017-Mar-14 12:26N 51°57' E 003°48'0 0.2
2017-Mar-14 11:23N 51°57' E 003°48'0 0.0
2017-Mar-14 10:33N 51°57' E 003°48'0 0.0
2017-Mar-14 09:24N 51°57' E 003°48'0 0.2
2017-Mar-14 08:14N 51°57' E 003°48'0 0.1
2017-Mar-14 07:33N 51°57' E 003°48'0 0.0
2017-Mar-14 06:33N 51°57' E 003°48'0 0.0
2017-Mar-14 05:33N 51°57' E 003°48'0 0.0
2017-Mar-14 04:32N 51°57' E 003°48'0 0.1
2017-Mar-14 03:33N 51°57' E 003°48'0 0.0
2017-Mar-14 02:33N 51°57' E 003°48'0 0.1
2017-Mar-14 01:33N 51°57' E 003°48'0 0.1
2017-Mar-14 00:30N 51°57' E 003°48'0 0.0
2017-Mar-13 23:30N 51°57' E 003°48'0 0.0
2017-Mar-13 22:30N 51°57' E 003°48'0 0.0
2017-Mar-13 21:33N 51°57' E 003°48'0 0.0
2017-Mar-13 20:33N 51°57' E 003°48'0 0.0
2017-Mar-13 19:33N 51°57' E 003°48'0 0.1
2017-Mar-13 18:30N 51°57' E 003°48'0 0.0
2017-Mar-13 17:33N 51°57' E 003°48'0 0.0
2017-Mar-13 16:33N 51°57' E 003°48'0 0.0
2017-Mar-13 15:33N 51°57' E 003°48'0 0.0
2017-Mar-13 14:33N 51°57' E 003°48'0 0.1
2017-Mar-13 13:30N 51°57' E 003°48'0 0.1
2017-Mar-13 12:33N 51°57' E 003°48'0 0.1
2017-Mar-13 11:33N 51°57' E 003°48'0 0.0
2017-Mar-13 10:33N 51°57' E 003°48'0 0.0
2017-Mar-13 09:33N 51°57' E 003°48'0 0.0
2017-Mar-13 08:33N 51°57' E 003°48'0 0.0
2017-Mar-13 07:33N 51°57' E 003°48'0 0.1
2017-Mar-13 06:33N 51°57' E 003°48'0 0.1
2017-Mar-13 05:32N 51°57' E 003°48'0 0.0
2017-Mar-13 04:33N 51°57' E 003°48'0 0.0
2017-Mar-13 03:27N 51°57' E 003°48'0 0.0
2017-Mar-13 02:32N 51°57' E 003°48'0 0.0
2017-Mar-13 01:33N 51°57' E 003°48'0 0.1
2017-Mar-13 00:33N 51°57' E 003°48'0 0.1
2017-Mar-12 23:33N 51°57' E 003°48'0 0.0
2017-Mar-12 22:33N 51°57' E 003°48'0 0.0
2017-Mar-12 21:32N 51°57' E 003°48'0 0.0
2017-Mar-12 20:33N 51°57' E 003°48'0 0.0
2017-Mar-12 19:33N 51°57' E 003°48'0 0.0
2017-Mar-12 18:33N 51°57' E 003°48'0 0.1
2017-Mar-12 17:33N 51°57' E 003°48'0 0.1
2017-Mar-12 16:29N 51°57' E 003°48'0 0.0
2017-Mar-12 15:33N 51°57' E 003°48'0 0.0
2017-Mar-12 14:33N 51°57' E 003°48'0 0.0
2017-Mar-12 13:33N 51°57' E 003°48'7 6.7
2017-Mar-12 12:33N 52°03' E 003°54'6 6.3
2017-Mar-12 11:33N 51°58' E 004°02'2 2.0
2017-Mar-12 10:33N 51°57' E 003°59'0 0.0
2017-Mar-12 09:32N 51°57' E 003°59'0 0.0
2017-Mar-12 08:32N 51°57' E 003°59'0 0.0
2017-Mar-12 07:30N 51°57' E 003°59'0 0.0
2017-Mar-12 06:33N 51°57' E 003°59'0 0.0
2017-Mar-12 05:32N 51°57' E 003°59'0 0.0
2017-Mar-12 04:33N 51°57' E 003°59'0 0.0
2017-Mar-12 03:33N 51°57' E 003°59'1 0.9
2017-Mar-12 02:33N 51°58' E 004°00'7 7.0
2017-Mar-12 01:33N 51°57' E 004°11'10 9.9
2017-Mar-12 00:33N 51°54' E 004°26'0 0.1
2017-Mar-11 23:33N 51°54' E 004°26'0 0.0
2017-Mar-11 22:33N 51°54' E 004°26'0 0.0
2017-Mar-11 21:33N 51°54' E 004°26'0 0.0
2017-Mar-11 20:31N 51°54' E 004°26'0 0.0
2017-Mar-11 19:31N 51°54' E 004°26'0 0.0
2017-Mar-11 18:31N 51°54' E 004°26'0 0.0
2017-Mar-11 17:33N 51°54' E 004°26'0 0.0
2017-Mar-11 16:33N 51°54' E 004°26'0 0.0
2017-Mar-11 15:33N 51°54' E 004°26'0 0.0
2017-Mar-11 14:33N 51°54' E 004°26'0 0.0
2017-Mar-11 13:33N 51°54' E 004°26'0 0.0
2017-Mar-11 12:31N 51°54' E 004°26'0 0.0
2017-Mar-11 11:33N 51°54' E 004°26'1 0.9
2017-Mar-11 10:33N 51°53' E 004°25'0 0.0
2017-Mar-11 09:33N 51°53' E 004°25'0 0.4
2017-Mar-11 08:33N 51°53' E 004°25'0 0.1
2017-Mar-11 07:32N 51°53' E 004°25'0 0.0
2017-Mar-11 06:32N 51°53' E 004°25'0 0.0
2017-Mar-11 05:32N 51°53' E 004°25'0 0.0
2017-Mar-11 04:32N 51°53' E 004°25'0 0.0
2017-Mar-11 03:32N 51°53' E 004°25'0 0.2
2017-Mar-11 02:34N 51°53' E 004°25'8 8.0
2017-Mar-11 01:34N 51°56' E 004°13'6 6.0
2017-Mar-11 00:33N 51°57' E 004°03'1 0.8
2017-Mar-10 23:33N 51°56' E 004°04'1 0.8
2017-Mar-10 22:33N 51°57' E 004°03'0 0.0
2017-Mar-10 21:33N 51°57' E 004°03'0 0.0
2017-Mar-10 20:33N 51°57' E 004°03'0 0.0
2017-Mar-10 19:33N 51°57' E 004°03'0 0.0
2017-Mar-10 18:33N 51°57' E 004°03'4 3.7
2017-Mar-10 17:34N 51°60' E 003°59'1211.3
2017-Mar-10 16:32N 51°57' E 003°41'3 0.6
2017-Mar-10 12:19N 51°55' E 003°38'0 0.0
2017-Mar-10 11:31N 51°55' E 003°38'0 0.1
2017-Mar-10 09:31N 51°55' E 003°38'1010.4
2017-Mar-10 08:33N 51°54' E 003°21'3415.4
2017-Mar-10 06:22N 51°42' E 002°31'1215.3
2017-Mar-10 05:34N 51°32' E 002°18'1515.5
2017-Mar-10 04:33N 51°18' E 002°09'1514.8
2017-Mar-10 03:33N 51°09' E 001°50'1615.7
2017-Mar-10 02:33N 50°58' E 001°33'1616.3
2017-Mar-10 01:34N 50°42' E 001°24'1816.1
2017-Mar-10 00:25N 50°31' E 001°01'1415.6
2017-Mar-09 23:31N 50°26' E 000°40'1616.0
2017-Mar-09 22:30N 50°21' E 000°16'1616.4
2017-Mar-09 21:33N 50°18' W 000°08'1717.1
2017-Mar-09 20:33N 50°14' W 000°34'1818.3
2017-Mar-09 19:33N 50°09' W 001°01'1919.3
2017-Mar-09 18:33N 50°04' W 001°30'2019.9
2017-Mar-09 17:33N 49°58' W 002°00'1919.0
2017-Mar-09 16:33N 49°53' W 002°28'1818.2
2017-Mar-09 15:33N 49°48' W 002°55'1817.6
2017-Mar-09 14:33N 49°39' W 003°19'9016.9
2017-Mar-09 09:13N 48°52' W 005°17'1115.7
2017-Mar-09 08:31N 48°47' W 005°32'10914.6
2017-Mar-09 01:03N 47°00' W 004°53'815.8
2017-Mar-09 00:33N 46°53' W 004°50'1515.5
2017-Mar-08 23:33N 46°38' W 004°43'1615.8
2017-Mar-08 22:33N 46°23' W 004°35'1616.2
2017-Mar-08 21:33N 46°08' W 004°27'  
Track history (hours):
 
Tides and Currents Weather Stations Pressure Air Temp Water Temp Dewpoint Dewpoint Depression Visibility Wind Speed Wind Dir Waves Ship Positions

Euro Snow

Last reported at 2017-Mar-18 13:27 UTC. Time now 2017-Mar-23 12:31 UTC.
Position N 59°12' W 004°27'.

Length 133 m; draft 6.6 m.

Type: Ship (hazmat cat A). MMSI: 235613000.

Date/timePositionNaut miles runAvg speedWind from/ knotsBaromVisibWave heightAir tempDewpointWater temp
2017-Mar-18 13:27N 59°12' W 004°27'1415.7
2017-Mar-18 12:33N 59°04' W 004°04'1615.6
2017-Mar-18 11:34N 58°54' W 003°41'1514.8
2017-Mar-18 10:33N 58°45' W 003°18'1414.0
2017-Mar-18 09:33N 58°38' W 002°55'5217.2
2017-Mar-18 06:33N 57°57' W 001°56'1616.3
2017-Mar-18 05:33N 57°43' W 001°39'37115.9
2017-Mar-17 06:13N 52°15' E 003°24'1116.5
2017-Mar-17 05:33N 52°07' E 003°37'1313.3
2017-Mar-17 04:33N 52°02' E 003°56'1313.3
2017-Mar-17 03:33N 51°55' E 004°15'7 6.8
2017-Mar-17 02:32N 51°53' E 004°25'0 0.0
2017-Mar-17 01:32N 51°53' E 004°25'0 0.0
2017-Mar-17 00:31N 51°53' E 004°25'0 0.0
2017-Mar-16 23:33N 51°53' E 004°25'0 0.0
2017-Mar-16 22:34N 51°53' E 004°25'0 0.0
2017-Mar-16 21:33N 51°53' E 004°25'0 0.0
2017-Mar-16 20:33N 51°53' E 004°25'0 0.0
2017-Mar-16 19:34N 51°53' E 004°25'0 0.0
2017-Mar-16 18:33N 51°53' E 004°25'0 0.0
2017-Mar-16 17:29N 51°53' E 004°25'0 0.0
2017-Mar-16 16:32N 51°53' E 004°25'0 0.0
2017-Mar-16 15:32N 51°53' E 004°25'0 0.0
2017-Mar-16 14:32N 51°53' E 004°25'0 0.0
2017-Mar-16 13:32N 51°53' E 004°25'0 0.0
2017-Mar-16 12:32N 51°53' E 004°25'0 0.0
2017-Mar-16 11:34N 51°53' E 004°25'0 0.0
2017-Mar-16 10:31N 51°53' E 004°25'0 0.0
2017-Mar-16 09:34N 51°53' E 004°25'0 0.0
2017-Mar-16 08:34N 51°53' E 004°25'0 0.0
2017-Mar-16 07:33N 51°53' E 004°25'0 0.0
2017-Mar-16 06:34N 51°53' E 004°25'5 5.0
2017-Mar-16 05:34N 51°54' E 004°17'1212.3
2017-Mar-16 04:33N 51°60' E 003°60'8 8.4
2017-Mar-16 03:33N 51°59' E 003°46'2 1.7
2017-Mar-16 02:32N 51°57' E 003°48'0 0.1
2017-Mar-16 01:29N 51°57' E 003°48'0 0.0
2017-Mar-16 00:32N 51°57' E 003°48'0 0.0
2017-Mar-15 23:29N 51°57' E 003°48'0 0.0
2017-Mar-15 22:20N 51°57' E 003°48'0 0.0
2017-Mar-15 21:32N 51°57' E 003°48'0 0.1
2017-Mar-15 20:29N 51°57' E 003°48'0 0.1
2017-Mar-15 19:32N 51°57' E 003°48'0 0.0
2017-Mar-15 18:32N 51°57' E 003°48'0 0.0
2017-Mar-15 17:29N 51°57' E 003°48'0 0.0
2017-Mar-15 16:32N 51°57' E 003°48'0 0.0
2017-Mar-15 15:32N 51°57' E 003°48'0 0.1
2017-Mar-15 14:32N 51°57' E 003°48'0 0.1
2017-Mar-15 13:32N 51°57' E 003°48'0 0.0
2017-Mar-15 12:26N 51°57' E 003°48'0 0.0
2017-Mar-15 11:33N 51°57' E 003°48'0 0.0
2017-Mar-15 10:33N 51°57' E 003°48'0 0.0
2017-Mar-15 09:33N 51°57' E 003°48'0 0.0
2017-Mar-15 08:33N 51°57' E 003°48'0 0.1
2017-Mar-15 07:33N 51°57' E 003°48'0 0.0
2017-Mar-15 06:33N 51°57' E 003°48'0 0.0
2017-Mar-15 05:33N 51°57' E 003°48'0 0.0
2017-Mar-15 04:33N 51°57' E 003°48'0 0.0
2017-Mar-15 03:33N 51°57' E 003°48'0 0.0
2017-Mar-15 02:33N 51°57' E 003°48'0 0.0
2017-Mar-15 01:33N 51°57' E 003°48'0 0.1
2017-Mar-15 00:27N 51°57' E 003°48'0 0.0
2017-Mar-14 23:33N 51°57' E 003°48'0 0.0
2017-Mar-14 22:32N 51°57' E 003°48'0 0.0
2017-Mar-14 21:30N 51°57' E 003°48'0 0.1
2017-Mar-14 20:06N 51°57' E 003°48'0 0.2
2017-Mar-14 19:29N 51°57' E 003°48'0 0.0
2017-Mar-14 18:33N 51°57' E 003°48'0 0.0
2017-Mar-14 17:24N 51°57' E 003°48'0 0.0
2017-Mar-14 16:30N 51°57' E 003°48'0 0.0
2017-Mar-14 15:30N 51°57' E 003°48'0 0.0
2017-Mar-14 14:33N 51°57' E 003°48'0 0.0
2017-Mar-14 13:32N 51°57' E 003°48'0 0.1
2017-Mar-14 12:26N 51°57' E 003°48'0 0.2
2017-Mar-14 11:23N 51°57' E 003°48'0 0.0
2017-Mar-14 10:33N 51°57' E 003°48'0 0.0
2017-Mar-14 09:24N 51°57' E 003°48'0 0.2
2017-Mar-14 08:14N 51°57' E 003°48'0 0.1
2017-Mar-14 07:33N 51°57' E 003°48'0 0.0
2017-Mar-14 06:33N 51°57' E 003°48'0 0.0
2017-Mar-14 05:33N 51°57' E 003°48'0 0.0
2017-Mar-14 04:32N 51°57' E 003°48'0 0.1
2017-Mar-14 03:33N 51°57' E 003°48'0 0.0
2017-Mar-14 02:33N 51°57' E 003°48'0 0.1
2017-Mar-14 01:33N 51°57' E 003°48'0 0.1
2017-Mar-14 00:30N 51°57' E 003°48'0 0.0
2017-Mar-13 23:30N 51°57' E 003°48'0 0.0
2017-Mar-13 22:30N 51°57' E 003°48'0 0.0
2017-Mar-13 21:33N 51°57' E 003°48'0 0.0
2017-Mar-13 20:33N 51°57' E 003°48'0 0.0
2017-Mar-13 19:33N 51°57' E 003°48'0 0.1
2017-Mar-13 18:30N 51°57' E 003°48'0 0.0
2017-Mar-13 17:33N 51°57' E 003°48'0 0.0
2017-Mar-13 16:33N 51°57' E 003°48'0 0.0
2017-Mar-13 15:33N 51°57' E 003°48'0 0.0
2017-Mar-13 14:33N 51°57' E 003°48'0 0.1
2017-Mar-13 13:30N 51°57' E 003°48'0 0.1
2017-Mar-13 12:33N 51°57' E 003°48'0 0.1
2017-Mar-13 11:33N 51°57' E 003°48'0 0.0
2017-Mar-13 10:33N 51°57' E 003°48'0 0.0
2017-Mar-13 09:33N 51°57' E 003°48'0 0.0
2017-Mar-13 08:33N 51°57' E 003°48'0 0.0
2017-Mar-13 07:33N 51°57' E 003°48'0 0.1
2017-Mar-13 06:33N 51°57' E 003°48'0 0.1
2017-Mar-13 05:32N 51°57' E 003°48'0 0.0
2017-Mar-13 04:33N 51°57' E 003°48'0 0.0
2017-Mar-13 03:27N 51°57' E 003°48'0 0.0
2017-Mar-13 02:32N 51°57' E 003°48'0 0.0
2017-Mar-13 01:33N 51°57' E 003°48'0 0.1
2017-Mar-13 00:33N 51°57' E 003°48'0 0.1
2017-Mar-12 23:33N 51°57' E 003°48'0 0.0
2017-Mar-12 22:33N 51°57' E 003°48'0 0.0
2017-Mar-12 21:32N 51°57' E 003°48'0 0.0
2017-Mar-12 20:33N 51°57' E 003°48'0 0.0
2017-Mar-12 19:33N 51°57' E 003°48'0 0.0
2017-Mar-12 18:33N 51°57' E 003°48'0 0.1
2017-Mar-12 17:33N 51°57' E 003°48'0 0.1
2017-Mar-12 16:29N 51°57' E 003°48'0 0.0
2017-Mar-12 15:33N 51°57' E 003°48'0 0.0
2017-Mar-12 14:33N 51°57' E 003°48'0 0.0
2017-Mar-12 13:33N 51°57' E 003°48'7 6.7
2017-Mar-12 12:33N 52°03' E 003°54'6 6.3
2017-Mar-12 11:33N 51°58' E 004°02'2 2.0
2017-Mar-12 10:33N 51°57' E 003°59'0 0.0
2017-Mar-12 09:32N 51°57' E 003°59'0 0.0
2017-Mar-12 08:32N 51°57' E 003°59'0 0.0
2017-Mar-12 07:30N 51°57' E 003°59'0 0.0
2017-Mar-12 06:33N 51°57' E 003°59'0 0.0
2017-Mar-12 05:32N 51°57' E 003°59'0 0.0
2017-Mar-12 04:33N 51°57' E 003°59'0 0.0
2017-Mar-12 03:33N 51°57' E 003°59'1 0.9
2017-Mar-12 02:33N 51°58' E 004°00'7 7.0
2017-Mar-12 01:33N 51°57' E 004°11'10 9.9
2017-Mar-12 00:33N 51°54' E 004°26'0 0.1
2017-Mar-11 23:33N 51°54' E 004°26'0 0.0
2017-Mar-11 22:33N 51°54' E 004°26'0 0.0
2017-Mar-11 21:33N 51°54' E 004°26'0 0.0
2017-Mar-11 20:31N 51°54' E 004°26'0 0.0
2017-Mar-11 19:31N 51°54' E 004°26'0 0.0
2017-Mar-11 18:31N 51°54' E 004°26'0 0.0
2017-Mar-11 17:33N 51°54' E 004°26'0 0.0
2017-Mar-11 16:33N 51°54' E 004°26'0 0.0
2017-Mar-11 15:33N 51°54' E 004°26'0 0.0
2017-Mar-11 14:33N 51°54' E 004°26'0 0.0
2017-Mar-11 13:33N 51°54' E 004°26'0 0.0
2017-Mar-11 12:31N 51°54' E 004°26'0 0.0
2017-Mar-11 11:33N 51°54' E 004°26'1 0.9
2017-Mar-11 10:33N 51°53' E 004°25'0 0.0
2017-Mar-11 09:33N 51°53' E 004°25'0 0.4
2017-Mar-11 08:33N 51°53' E 004°25'0 0.1
2017-Mar-11 07:32N 51°53' E 004°25'0 0.0
2017-Mar-11 06:32N 51°53' E 004°25'0 0.0
2017-Mar-11 05:32N 51°53' E 004°25'0 0.0
2017-Mar-11 04:32N 51°53' E 004°25'0 0.0
2017-Mar-11 03:32N 51°53' E 004°25'0 0.2
2017-Mar-11 02:34N 51°53' E 004°25'8 8.0
2017-Mar-11 01:34N 51°56' E 004°13'6 6.0
2017-Mar-11 00:33N 51°57' E 004°03'1 0.8
2017-Mar-10 23:33N 51°56' E 004°04'1 0.8
2017-Mar-10 22:33N 51°57' E 004°03'0 0.0
2017-Mar-10 21:33N 51°57' E 004°03'0 0.0
2017-Mar-10 20:33N 51°57' E 004°03'0 0.0
2017-Mar-10 19:33N 51°57' E 004°03'0 0.0
2017-Mar-10 18:33N 51°57' E 004°03'4 3.7
2017-Mar-10 17:34N 51°60' E 003°59'1211.3
2017-Mar-10 16:32N 51°57' E 003°41'3 0.6
2017-Mar-10 12:19N 51°55' E 003°38'0 0.0
2017-Mar-10 11:31N 51°55' E 003°38'0 0.1
2017-Mar-10 09:31N 51°55' E 003°38'1010.4
2017-Mar-10 08:33N 51°54' E 003°21'3415.4
2017-Mar-10 06:22N 51°42' E 002°31'1215.3
2017-Mar-10 05:34N 51°32' E 002°18'1515.5
2017-Mar-10 04:33N 51°18' E 002°09'1514.8
2017-Mar-10 03:33N 51°09' E 001°50'1615.7
2017-Mar-10 02:33N 50°58' E 001°33'1616.3
2017-Mar-10 01:34N 50°42' E 001°24'1816.1
2017-Mar-10 00:25N 50°31' E 001°01'1415.6
2017-Mar-09 23:31N 50°26' E 000°40'1616.0
2017-Mar-09 22:30N 50°21' E 000°16'1616.4
2017-Mar-09 21:33N 50°18' W 000°08'1717.1
2017-Mar-09 20:33N 50°14' W 000°34'1818.3
2017-Mar-09 19:33N 50°09' W 001°01'1919.3
2017-Mar-09 18:33N 50°04' W 001°30'2019.9
2017-Mar-09 17:33N 49°58' W 002°00'1919.0
2017-Mar-09 16:33N 49°53' W 002°28'1818.2
2017-Mar-09 15:33N 49°48' W 002°55'1817.6
2017-Mar-09 14:33N 49°39' W 003°19'9016.9
2017-Mar-09 09:13N 48°52' W 005°17'1115.7
2017-Mar-09 08:31N 48°47' W 005°32'10914.6
2017-Mar-09 01:03N 47°00' W 004°53'815.8
2017-Mar-09 00:33N 46°53' W 004°50'1515.5
2017-Mar-08 23:33N 46°38' W 004°43'1615.8
2017-Mar-08 22:33N 46°23' W 004°35'1616.2
2017-Mar-08 21:33N 46°08' W 004°27'  

Dump ship's entire track history